sensor_id;sensor_type;location;lat;lon;timestamp;P1;durP1;ratioP1;P2;durP2;ratioP2
35632;SDS011;21754;48.216;-1.628;2023-09-08T00:00:09;4.15;;;3.75;;
35632;SDS011;21754;48.216;-1.628;2023-09-08T00:02:35;5.20;;;4.10;;
35632;SDS011;21754;48.216;-1.628;2023-09-08T00:05:01;5.75;;;3.80;;
35632;SDS011;21754;48.216;-1.628;2023-09-08T00:07:28;9.20;;;4.20;;
35632;SDS011;21754;48.216;-1.628;2023-09-08T00:09:54;6.25;;;4.50;;
35632;SDS011;21754;48.216;-1.628;2023-09-08T00:12:20;4.63;;;4.20;;
35632;SDS011;21754;48.216;-1.628;2023-09-08T00:14:46;7.45;;;3.20;;
35632;SDS011;21754;48.216;-1.628;2023-09-08T00:17:12;6.55;;;3.45;;
35632;SDS011;21754;48.216;-1.628;2023-09-08T00:19:38;5.75;;;3.70;;
35632;SDS011;21754;48.216;-1.628;2023-09-08T00:22:04;6.35;;;4.43;;
35632;SDS011;21754;48.216;-1.628;2023-09-08T00:24:33;9.32;;;3.83;;
35632;SDS011;21754;48.216;-1.628;2023-09-08T00:27:05;4.93;;;3.78;;
35632;SDS011;21754;48.216;-1.628;2023-09-08T00:29:35;5.65;;;3.58;;
35632;SDS011;21754;48.216;-1.628;2023-09-08T00:32:01;9.23;;;3.65;;
35632;SDS011;21754;48.216;-1.628;2023-09-08T00:34:27;11.90;;;4.30;;
35632;SDS011;21754;48.216;-1.628;2023-09-08T00:36:53;4.97;;;3.38;;
35632;SDS011;21754;48.216;-1.628;2023-09-08T00:39:19;8.52;;;4.40;;
35632;SDS011;21754;48.216;-1.628;2023-09-08T00:41:45;9.38;;;4.90;;
35632;SDS011;21754;48.216;-1.628;2023-09-08T00:44:11;8.50;;;4.65;;
35632;SDS011;21754;48.216;-1.628;2023-09-08T00:46:37;6.38;;;3.70;;
35632;SDS011;21754;48.216;-1.628;2023-09-08T00:49:03;8.93;;;4.40;;
35632;SDS011;21754;48.216;-1.628;2023-09-08T00:51:30;20.27;;;4.95;;
35632;SDS011;21754;48.216;-1.628;2023-09-08T00:53:56;8.05;;;3.72;;
35632;SDS011;21754;48.216;-1.628;2023-09-08T00:56:23;9.05;;;4.43;;
35632;SDS011;21754;48.216;-1.628;2023-09-08T00:58:49;15.03;;;5.43;;
35632;SDS011;21754;48.216;-1.628;2023-09-08T01:01:15;6.25;;;3.38;;
35632;SDS011;21754;48.216;-1.628;2023-09-08T01:03:42;4.38;;;3.65;;
35632;SDS011;21754;48.216;-1.628;2023-09-08T01:06:08;5.93;;;3.47;;
35632;SDS011;21754;48.216;-1.628;2023-09-08T01:08:35;9.82;;;4.00;;
35632;SDS011;21754;48.216;-1.628;2023-09-08T01:11:01;9.53;;;4.30;;
35632;SDS011;21754;48.216;-1.628;2023-09-08T01:13:28;10.40;;;4.85;;
35632;SDS011;21754;48.216;-1.628;2023-09-08T01:15:54;16.60;;;6.13;;
35632;SDS011;21754;48.216;-1.628;2023-09-08T01:18:20;13.02;;;4.57;;
35632;SDS011;21754;48.216;-1.628;2023-09-08T01:23:21;5.38;;;4.47;;
35632;SDS011;21754;48.216;-1.628;2023-09-08T01:25:57;10.95;;;4.78;;
35632;SDS011;21754;48.216;-1.628;2023-09-08T01:28:25;15.73;;;5.82;;
35632;SDS011;21754;48.216;-1.628;2023-09-08T01:30:52;17.40;;;5.10;;
35632;SDS011;21754;48.216;-1.628;2023-09-08T01:33:18;5.97;;;3.40;;
35632;SDS011;21754;48.216;-1.628;2023-09-08T01:35:45;5.38;;;4.18;;
35632;SDS011;21754;48.216;-1.628;2023-09-08T01:38:11;6.47;;;4.28;;
35632;SDS011;21754;48.216;-1.628;2023-09-08T01:40:37;9.48;;;5.00;;
35632;SDS011;21754;48.216;-1.628;2023-09-08T01:43:03;4.22;;;3.78;;
35632;SDS011;21754;48.216;-1.628;2023-09-08T01:45:29;10.00;;;3.45;;
35632;SDS011;21754;48.216;-1.628;2023-09-08T01:47:55;9.27;;;4.63;;
35632;SDS011;21754;48.216;-1.628;2023-09-08T01:50:21;14.57;;;3.42;;
35632;SDS011;21754;48.216;-1.628;2023-09-08T01:52:49;15.57;;;3.80;;
35632;SDS011;21754;48.216;-1.628;2023-09-08T01:55:15;9.88;;;4.55;;
35632;SDS011;21754;48.216;-1.628;2023-09-08T01:57:42;6.30;;;3.78;;
35632;SDS011;21754;48.216;-1.628;2023-09-08T02:00:08;4.75;;;4.00;;
35632;SDS011;21754;48.216;-1.628;2023-09-08T02:02:34;8.90;;;3.88;;
35632;SDS011;21754;48.216;-1.628;2023-09-08T02:05:00;11.77;;;4.15;;
35632;SDS011;21754;48.216;-1.628;2023-09-08T02:07:26;8.93;;;4.03;;
35632;SDS011;21754;48.216;-1.628;2023-09-08T02:09:52;15.80;;;5.18;;
35632;SDS011;21754;48.216;-1.628;2023-09-08T02:12:18;5.47;;;3.30;;
35632;SDS011;21754;48.216;-1.628;2023-09-08T02:14:44;3.67;;;3.33;;
35632;SDS011;21754;48.216;-1.628;2023-09-08T02:17:10;10.48;;;3.63;;
35632;SDS011;21754;48.216;-1.628;2023-09-08T02:19:36;7.65;;;3.50;;
35632;SDS011;21754;48.216;-1.628;2023-09-08T02:22:02;9.65;;;3.97;;
35632;SDS011;21754;48.216;-1.628;2023-09-08T02:24:28;8.05;;;3.97;;
35632;SDS011;21754;48.216;-1.628;2023-09-08T02:26:54;6.65;;;3.08;;
35632;SDS011;21754;48.216;-1.628;2023-09-08T02:29:20;8.45;;;3.85;;
35632;SDS011;21754;48.216;-1.628;2023-09-08T02:31:47;4.80;;;3.60;;
35632;SDS011;21754;48.216;-1.628;2023-09-08T02:34:13;7.35;;;3.67;;
35632;SDS011;21754;48.216;-1.628;2023-09-08T02:36:39;7.22;;;4.22;;
35632;SDS011;21754;48.216;-1.628;2023-09-08T02:39:05;9.45;;;3.70;;
35632;SDS011;21754;48.216;-1.628;2023-09-08T02:41:32;13.25;;;4.63;;
35632;SDS011;21754;48.216;-1.628;2023-09-08T02:43:59;15.15;;;5.00;;
35632;SDS011;21754;48.216;-1.628;2023-09-08T02:46:25;4.45;;;3.85;;
35632;SDS011;21754;48.216;-1.628;2023-09-08T02:48:51;9.52;;;3.67;;
35632;SDS011;21754;48.216;-1.628;2023-09-08T02:51:17;11.63;;;3.83;;
35632;SDS011;21754;48.216;-1.628;2023-09-08T02:53:44;4.63;;;4.20;;
35632;SDS011;21754;48.216;-1.628;2023-09-08T02:56:10;8.45;;;3.83;;
35632;SDS011;21754;48.216;-1.628;2023-09-08T02:58:36;7.78;;;3.70;;
35632;SDS011;21754;48.216;-1.628;2023-09-08T03:03:38;6.63;;;3.78;;
35632;SDS011;21754;48.216;-1.628;2023-09-08T03:06:04;8.10;;;4.45;;
35632;SDS011;21754;48.216;-1.628;2023-09-08T03:08:30;12.65;;;4.32;;
35632;SDS011;21754;48.216;-1.628;2023-09-08T03:10:57;11.75;;;4.95;;
35632;SDS011;21754;48.216;-1.628;2023-09-08T03:13:23;8.25;;;3.05;;
35632;SDS011;21754;48.216;-1.628;2023-09-08T03:15:51;6.30;;;3.53;;
35632;SDS011;21754;48.216;-1.628;2023-09-08T03:18:17;6.60;;;3.90;;
35632;SDS011;21754;48.216;-1.628;2023-09-08T03:20:43;14.07;;;4.43;;
35632;SDS011;21754;48.216;-1.628;2023-09-08T03:23:09;6.95;;;4.18;;
35632;SDS011;21754;48.216;-1.628;2023-09-08T03:25:38;12.00;;;4.85;;
35632;SDS011;21754;48.216;-1.628;2023-09-08T03:28:04;11.38;;;5.00;;
35632;SDS011;21754;48.216;-1.628;2023-09-08T03:30:30;6.80;;;5.10;;
35632;SDS011;21754;48.216;-1.628;2023-09-08T03:32:56;40.92;;;6.43;;
35632;SDS011;21754;48.216;-1.628;2023-09-08T03:35:22;7.25;;;4.63;;
35632;SDS011;21754;48.216;-1.628;2023-09-08T03:37:50;5.00;;;4.03;;
35632;SDS011;21754;48.216;-1.628;2023-09-08T03:40:16;10.68;;;4.28;;
35632;SDS011;21754;48.216;-1.628;2023-09-08T03:42:42;9.70;;;4.00;;
35632;SDS011;21754;48.216;-1.628;2023-09-08T03:45:08;9.95;;;4.80;;
35632;SDS011;21754;48.216;-1.628;2023-09-08T03:47:34;6.35;;;3.95;;
35632;SDS011;21754;48.216;-1.628;2023-09-08T03:50:00;5.15;;;4.75;;
35632;SDS011;21754;48.216;-1.628;2023-09-08T03:52:27;8.20;;;3.83;;
35632;SDS011;21754;48.216;-1.628;2023-09-08T03:54:53;3.92;;;3.45;;
35632;SDS011;21754;48.216;-1.628;2023-09-08T03:57:19;10.80;;;4.60;;
35632;SDS011;21754;48.216;-1.628;2023-09-08T03:59:45;5.30;;;3.83;;
35632;SDS011;21754;48.216;-1.628;2023-09-08T04:02:11;7.78;;;4.45;;
35632;SDS011;21754;48.216;-1.628;2023-09-08T04:04:37;5.65;;;3.72;;
35632;SDS011;21754;48.216;-1.628;2023-09-08T04:07:03;5.68;;;3.03;;
35632;SDS011;21754;48.216;-1.628;2023-09-08T04:09:29;7.57;;;4.22;;
35632;SDS011;21754;48.216;-1.628;2023-09-08T04:14:22;4.32;;;4.00;;
35632;SDS011;21754;48.216;-1.628;2023-09-08T04:16:52;8.20;;;3.63;;
35632;SDS011;21754;48.216;-1.628;2023-09-08T04:19:18;6.55;;;3.78;;
35632;SDS011;21754;48.216;-1.628;2023-09-08T04:21:44;9.38;;;3.97;;
35632;SDS011;21754;48.216;-1.628;2023-09-08T04:24:10;7.57;;;4.07;;
35632;SDS011;21754;48.216;-1.628;2023-09-08T04:26:36;8.13;;;3.90;;
35632;SDS011;21754;48.216;-1.628;2023-09-08T04:29:02;8.60;;;4.05;;
35632;SDS011;21754;48.216;-1.628;2023-09-08T04:31:28;6.53;;;3.25;;
35632;SDS011;21754;48.216;-1.628;2023-09-08T04:33:54;7.07;;;4.07;;
35632;SDS011;21754;48.216;-1.628;2023-09-08T04:36:20;9.35;;;3.90;;
35632;SDS011;21754;48.216;-1.628;2023-09-08T04:38:46;14.45;;;4.50;;
35632;SDS011;21754;48.216;-1.628;2023-09-08T04:41:12;4.20;;;3.78;;
35632;SDS011;21754;48.216;-1.628;2023-09-08T04:43:38;5.30;;;3.53;;
35632;SDS011;21754;48.216;-1.628;2023-09-08T04:46:10;12.25;;;6.03;;
35632;SDS011;21754;48.216;-1.628;2023-09-08T04:48:37;9.55;;;4.65;;
35632;SDS011;21754;48.216;-1.628;2023-09-08T04:51:03;19.33;;;4.53;;
35632;SDS011;21754;48.216;-1.628;2023-09-08T04:53:29;5.60;;;4.63;;
35632;SDS011;21754;48.216;-1.628;2023-09-08T04:55:55;7.03;;;4.80;;
35632;SDS011;21754;48.216;-1.628;2023-09-08T04:58:21;11.63;;;4.50;;
35632;SDS011;21754;48.216;-1.628;2023-09-08T05:00:47;12.13;;;5.18;;
35632;SDS011;21754;48.216;-1.628;2023-09-08T05:03:13;13.95;;;4.90;;
35632;SDS011;21754;48.216;-1.628;2023-09-08T05:05:39;12.82;;;4.43;;
35632;SDS011;21754;48.216;-1.628;2023-09-08T05:08:05;6.05;;;4.38;;
35632;SDS011;21754;48.216;-1.628;2023-09-08T05:10:31;34.40;;;6.40;;
35632;SDS011;21754;48.216;-1.628;2023-09-08T05:12:57;8.30;;;4.55;;
35632;SDS011;21754;48.216;-1.628;2023-09-08T05:15:23;8.52;;;4.78;;
35632;SDS011;21754;48.216;-1.628;2023-09-08T05:17:50;7.28;;;4.63;;
35632;SDS011;21754;48.216;-1.628;2023-09-08T05:20:16;10.90;;;4.65;;
35632;SDS011;21754;48.216;-1.628;2023-09-08T05:22:42;14.57;;;5.22;;
35632;SDS011;21754;48.216;-1.628;2023-09-08T05:25:09;4.82;;;4.03;;
35632;SDS011;21754;48.216;-1.628;2023-09-08T05:27:35;7.55;;;4.50;;
35632;SDS011;21754;48.216;-1.628;2023-09-08T05:30:01;9.25;;;4.53;;
35632;SDS011;21754;48.216;-1.628;2023-09-08T05:32:35;7.70;;;5.22;;
35632;SDS011;21754;48.216;-1.628;2023-09-08T05:35:22;16.15;;;4.43;;
35632;SDS011;21754;48.216;-1.628;2023-09-08T05:37:48;12.52;;;5.13;;
35632;SDS011;21754;48.216;-1.628;2023-09-08T05:40:17;7.30;;;5.07;;
35632;SDS011;21754;48.216;-1.628;2023-09-08T05:42:45;10.70;;;4.95;;
35632;SDS011;21754;48.216;-1.628;2023-09-08T05:45:20;9.57;;;5.35;;
35632;SDS011;21754;48.216;-1.628;2023-09-08T05:47:56;10.25;;;5.03;;
35632;SDS011;21754;48.216;-1.628;2023-09-08T05:50:25;10.20;;;6.07;;
35632;SDS011;21754;48.216;-1.628;2023-09-08T05:56:07;12.82;;;5.00;;
35632;SDS011;21754;48.216;-1.628;2023-09-08T05:59:18;8.15;;;4.93;;
35632;SDS011;21754;48.216;-1.628;2023-09-08T06:01:34;7.88;;;5.57;;
35632;SDS011;21754;48.216;-1.628;2023-09-08T06:04:20;19.42;;;5.70;;
35632;SDS011;21754;48.216;-1.628;2023-09-08T06:06:46;11.77;;;6.60;;
35632;SDS011;21754;48.216;-1.628;2023-09-08T06:09:13;6.35;;;4.50;;
35632;SDS011;21754;48.216;-1.628;2023-09-08T06:11:40;8.90;;;5.28;;
35632;SDS011;21754;48.216;-1.628;2023-09-08T06:14:06;7.85;;;5.22;;
35632;SDS011;21754;48.216;-1.628;2023-09-08T06:16:32;9.55;;;4.75;;
35632;SDS011;21754;48.216;-1.628;2023-09-08T06:18:58;5.97;;;4.88;;
35632;SDS011;21754;48.216;-1.628;2023-09-08T06:21:25;5.32;;;4.80;;
35632;SDS011;21754;48.216;-1.628;2023-09-08T06:23:52;11.25;;;5.75;;
35632;SDS011;21754;48.216;-1.628;2023-09-08T06:26:18;10.25;;;5.85;;
35632;SDS011;21754;48.216;-1.628;2023-09-08T06:28:46;10.00;;;6.95;;
35632;SDS011;21754;48.216;-1.628;2023-09-08T06:31:12;21.60;;;5.97;;
35632;SDS011;21754;48.216;-1.628;2023-09-08T06:33:39;25.55;;;6.43;;
35632;SDS011;21754;48.216;-1.628;2023-09-08T06:36:08;14.10;;;6.90;;
35632;SDS011;21754;48.216;-1.628;2023-09-08T06:38:40;23.48;;;6.78;;
35632;SDS011;21754;48.216;-1.628;2023-09-08T06:41:10;10.95;;;6.80;;
35632;SDS011;21754;48.216;-1.628;2023-09-08T06:43:43;6.47;;;5.78;;
35632;SDS011;21754;48.216;-1.628;2023-09-08T06:46:54;7.80;;;6.50;;
35632;SDS011;21754;48.216;-1.628;2023-09-08T06:49:45;15.52;;;6.85;;
35632;SDS011;21754;48.216;-1.628;2023-09-08T07:02:47;11.25;;;4.75;;
35632;SDS011;21754;48.216;-1.628;2023-09-08T07:05:14;9.88;;;5.15;;
35632;SDS011;21754;48.216;-1.628;2023-09-08T07:07:48;27.17;;;5.65;;
35632;SDS011;21754;48.216;-1.628;2023-09-08T07:10:14;14.05;;;6.25;;
35632;SDS011;21754;48.216;-1.628;2023-09-08T07:12:40;9.00;;;5.25;;
35632;SDS011;21754;48.216;-1.628;2023-09-08T07:15:09;12.50;;;6.82;;
35632;SDS011;21754;48.216;-1.628;2023-09-08T07:17:35;13.63;;;6.75;;
35632;SDS011;21754;48.216;-1.628;2023-09-08T07:20:02;11.63;;;6.80;;
35632;SDS011;21754;48.216;-1.628;2023-09-08T07:22:28;11.30;;;6.60;;
35632;SDS011;21754;48.216;-1.628;2023-09-08T07:24:54;17.48;;;8.02;;
35632;SDS011;21754;48.216;-1.628;2023-09-08T07:27:20;10.93;;;8.40;;
35632;SDS011;21754;48.216;-1.628;2023-09-08T07:29:46;15.98;;;7.97;;
35632;SDS011;21754;48.216;-1.628;2023-09-08T07:32:14;16.95;;;8.10;;
35632;SDS011;21754;48.216;-1.628;2023-09-08T07:34:40;11.32;;;8.95;;
35632;SDS011;21754;48.216;-1.628;2023-09-08T07:37:06;17.73;;;8.23;;
35632;SDS011;21754;48.216;-1.628;2023-09-08T07:39:32;26.48;;;9.60;;
35632;SDS011;21754;48.216;-1.628;2023-09-08T07:44:26;9.77;;;7.82;;
35632;SDS011;21754;48.216;-1.628;2023-09-08T07:46:52;17.05;;;8.93;;
35632;SDS011;21754;48.216;-1.628;2023-09-08T07:49:20;17.65;;;9.23;;
35632;SDS011;21754;48.216;-1.628;2023-09-08T07:51:46;20.48;;;8.57;;
35632;SDS011;21754;48.216;-1.628;2023-09-08T07:54:13;11.68;;;7.03;;
35632;SDS011;21754;48.216;-1.628;2023-09-08T07:56:39;13.55;;;8.85;;
35632;SDS011;21754;48.216;-1.628;2023-09-08T07:59:11;12.18;;;8.43;;
35632;SDS011;21754;48.216;-1.628;2023-09-08T08:01:37;14.77;;;8.32;;
35632;SDS011;21754;48.216;-1.628;2023-09-08T08:04:04;13.83;;;7.50;;
35632;SDS011;21754;48.216;-1.628;2023-09-08T08:06:30;7.90;;;7.20;;
35632;SDS011;21754;48.216;-1.628;2023-09-08T08:08:56;10.88;;;8.15;;
35632;SDS011;21754;48.216;-1.628;2023-09-08T08:11:22;10.80;;;7.30;;
35632;SDS011;21754;48.216;-1.628;2023-09-08T08:13:48;14.13;;;6.90;;
35632;SDS011;21754;48.216;-1.628;2023-09-08T08:16:18;8.82;;;6.65;;
35632;SDS011;21754;48.216;-1.628;2023-09-08T08:18:48;14.02;;;6.80;;
35632;SDS011;21754;48.216;-1.628;2023-09-08T08:21:14;9.20;;;6.38;;
35632;SDS011;21754;48.216;-1.628;2023-09-08T08:23:40;8.93;;;7.25;;
35632;SDS011;21754;48.216;-1.628;2023-09-08T08:26:06;16.25;;;6.95;;
35632;SDS011;21754;48.216;-1.628;2023-09-08T08:28:32;8.80;;;7.38;;
35632;SDS011;21754;48.216;-1.628;2023-09-08T08:30:58;12.50;;;6.22;;
35632;SDS011;21754;48.216;-1.628;2023-09-08T08:33:24;8.32;;;6.82;;
35632;SDS011;21754;48.216;-1.628;2023-09-08T08:35:54;10.60;;;6.72;;
35632;SDS011;21754;48.216;-1.628;2023-09-08T08:38:20;36.58;;;6.93;;
35632;SDS011;21754;48.216;-1.628;2023-09-08T08:40:46;10.63;;;6.20;;
35632;SDS011;21754;48.216;-1.628;2023-09-08T08:43:12;18.00;;;7.22;;
35632;SDS011;21754;48.216;-1.628;2023-09-08T08:45:38;15.00;;;6.70;;
35632;SDS011;21754;48.216;-1.628;2023-09-08T08:48:05;15.43;;;7.05;;
35632;SDS011;21754;48.216;-1.628;2023-09-08T08:50:31;16.38;;;5.75;;
35632;SDS011;21754;48.216;-1.628;2023-09-08T08:52:58;9.68;;;5.82;;
35632;SDS011;21754;48.216;-1.628;2023-09-08T08:55:25;25.33;;;8.30;;
35632;SDS011;21754;48.216;-1.628;2023-09-08T08:57:51;15.02;;;6.75;;
35632;SDS011;21754;48.216;-1.628;2023-09-08T09:00:17;11.90;;;5.97;;
35632;SDS011;21754;48.216;-1.628;2023-09-08T09:02:43;9.38;;;7.43;;
35632;SDS011;21754;48.216;-1.628;2023-09-08T09:05:13;15.13;;;6.43;;
35632;SDS011;21754;48.216;-1.628;2023-09-08T09:07:40;17.90;;;6.63;;
35632;SDS011;21754;48.216;-1.628;2023-09-08T09:10:07;14.98;;;7.13;;
35632;SDS011;21754;48.216;-1.628;2023-09-08T09:12:33;11.70;;;5.93;;
35632;SDS011;21754;48.216;-1.628;2023-09-08T09:14:59;13.23;;;5.93;;
35632;SDS011;21754;48.216;-1.628;2023-09-08T09:17:25;18.45;;;6.30;;
35632;SDS011;21754;48.216;-1.628;2023-09-08T09:20:03;29.17;;;8.02;;
35632;SDS011;21754;48.216;-1.628;2023-09-08T09:22:37;13.80;;;7.17;;
35632;SDS011;21754;48.216;-1.628;2023-09-08T09:25:03;11.90;;;6.82;;
35632;SDS011;21754;48.216;-1.628;2023-09-08T09:27:32;13.70;;;6.50;;
35632;SDS011;21754;48.216;-1.628;2023-09-08T09:30:02;21.65;;;6.22;;
35632;SDS011;21754;48.216;-1.628;2023-09-08T09:32:29;12.32;;;6.22;;
35632;SDS011;21754;48.216;-1.628;2023-09-08T09:34:56;10.80;;;6.13;;
35632;SDS011;21754;48.216;-1.628;2023-09-08T09:37:25;16.70;;;6.72;;
35632;SDS011;21754;48.216;-1.628;2023-09-08T09:39:51;11.70;;;6.80;;
35632;SDS011;21754;48.216;-1.628;2023-09-08T09:42:17;21.75;;;6.85;;
35632;SDS011;21754;48.216;-1.628;2023-09-08T09:44:44;15.45;;;5.45;;
35632;SDS011;21754;48.216;-1.628;2023-09-08T09:47:13;8.55;;;5.72;;
35632;SDS011;21754;48.216;-1.628;2023-09-08T09:49:43;12.30;;;6.33;;
35632;SDS011;21754;48.216;-1.628;2023-09-08T09:52:11;19.42;;;7.30;;
35632;SDS011;21754;48.216;-1.628;2023-09-08T09:54:39;8.15;;;5.47;;
35632;SDS011;21754;48.216;-1.628;2023-09-08T09:57:05;4.97;;;4.57;;
35632;SDS011;21754;48.216;-1.628;2023-09-08T09:59:31;15.25;;;5.65;;
35632;SDS011;21754;48.216;-1.628;2023-09-08T10:01:57;8.38;;;4.30;;
35632;SDS011;21754;48.216;-1.628;2023-09-08T10:04:23;8.23;;;5.40;;
35632;SDS011;21754;48.216;-1.628;2023-09-08T10:06:50;13.00;;;5.50;;
35632;SDS011;21754;48.216;-1.628;2023-09-08T10:09:17;12.68;;;4.97;;
35632;SDS011;21754;48.216;-1.628;2023-09-08T10:11:47;11.32;;;5.57;;
35632;SDS011;21754;48.216;-1.628;2023-09-08T10:14:17;10.20;;;5.18;;
35632;SDS011;21754;48.216;-1.628;2023-09-08T10:16:44;9.43;;;6.18;;
35632;SDS011;21754;48.216;-1.628;2023-09-08T10:19:10;10.90;;;5.22;;
35632;SDS011;21754;48.216;-1.628;2023-09-08T10:21:40;12.00;;;5.32;;
35632;SDS011;21754;48.216;-1.628;2023-09-08T10:24:10;13.65;;;5.13;;
35632;SDS011;21754;48.216;-1.628;2023-09-08T10:26:38;10.27;;;5.03;;
35632;SDS011;21754;48.216;-1.628;2023-09-08T10:29:06;16.13;;;5.72;;
35632;SDS011;21754;48.216;-1.628;2023-09-08T10:31:32;18.13;;;3.85;;
35632;SDS011;21754;48.216;-1.628;2023-09-08T10:33:59;6.22;;;4.00;;
35632;SDS011;21754;48.216;-1.628;2023-09-08T10:36:25;16.33;;;5.57;;
35632;SDS011;21754;48.216;-1.628;2023-09-08T10:38:52;10.27;;;4.85;;
35632;SDS011;21754;48.216;-1.628;2023-09-08T10:43:56;13.48;;;4.43;;
35632;SDS011;21754;48.216;-1.628;2023-09-08T10:46:26;14.55;;;5.25;;
35632;SDS011;21754;48.216;-1.628;2023-09-08T10:48:53;17.25;;;4.97;;
35632;SDS011;21754;48.216;-1.628;2023-09-08T10:51:19;14.65;;;5.60;;
35632;SDS011;21754;48.216;-1.628;2023-09-08T10:53:48;10.70;;;4.80;;
35632;SDS011;21754;48.216;-1.628;2023-09-08T10:56:14;14.07;;;4.60;;
35632;SDS011;21754;48.216;-1.628;2023-09-08T10:58:41;14.25;;;4.93;;
35632;SDS011;21754;48.216;-1.628;2023-09-08T11:01:18;5.72;;;4.20;;
35632;SDS011;21754;48.216;-1.628;2023-09-08T11:03:47;9.48;;;3.95;;
35632;SDS011;21754;48.216;-1.628;2023-09-08T11:08:41;6.28;;;3.60;;
35632;SDS011;21754;48.216;-1.628;2023-09-08T11:11:09;6.97;;;3.53;;
35632;SDS011;21754;48.216;-1.628;2023-09-08T11:13:36;6.53;;;4.22;;
35632;SDS011;21754;48.216;-1.628;2023-09-08T11:16:03;8.32;;;4.70;;
35632;SDS011;21754;48.216;-1.628;2023-09-08T11:18:29;6.55;;;4.18;;
35632;SDS011;21754;48.216;-1.628;2023-09-08T11:20:56;8.60;;;4.10;;
35632;SDS011;21754;48.216;-1.628;2023-09-08T11:23:22;12.27;;;4.88;;
35632;SDS011;21754;48.216;-1.628;2023-09-08T11:25:49;5.97;;;4.60;;
35632;SDS011;21754;48.216;-1.628;2023-09-08T11:28:16;5.53;;;4.40;;
35632;SDS011;21754;48.216;-1.628;2023-09-08T11:30:42;8.63;;;5.35;;
35632;SDS011;21754;48.216;-1.628;2023-09-08T11:33:15;18.70;;;6.03;;
35632;SDS011;21754;48.216;-1.628;2023-09-08T11:35:41;8.30;;;4.13;;
35632;SDS011;21754;48.216;-1.628;2023-09-08T11:38:09;11.00;;;4.93;;
35632;SDS011;21754;48.216;-1.628;2023-09-08T11:40:35;7.63;;;5.45;;
35632;SDS011;21754;48.216;-1.628;2023-09-08T11:43:02;8.68;;;4.78;;
35632;SDS011;21754;48.216;-1.628;2023-09-08T11:45:28;11.85;;;5.03;;
35632;SDS011;21754;48.216;-1.628;2023-09-08T11:47:55;14.80;;;3.92;;
35632;SDS011;21754;48.216;-1.628;2023-09-08T11:50:21;13.85;;;4.55;;
35632;SDS011;21754;48.216;-1.628;2023-09-08T11:52:49;10.98;;;4.80;;
35632;SDS011;21754;48.216;-1.628;2023-09-08T11:57:41;6.78;;;3.03;;
35632;SDS011;21754;48.216;-1.628;2023-09-08T12:00:09;15.30;;;4.45;;
35632;SDS011;21754;48.216;-1.628;2023-09-08T12:02:39;15.52;;;4.18;;
35632;SDS011;21754;48.216;-1.628;2023-09-08T12:05:05;8.30;;;3.28;;
35632;SDS011;21754;48.216;-1.628;2023-09-08T12:07:37;10.02;;;3.92;;
35632;SDS011;21754;48.216;-1.628;2023-09-08T12:10:07;11.88;;;3.85;;
35632;SDS011;21754;48.216;-1.628;2023-09-08T12:12:34;11.90;;;4.07;;
35632;SDS011;21754;48.216;-1.628;2023-09-08T12:15:00;16.27;;;5.38;;
35632;SDS011;21754;48.216;-1.628;2023-09-08T12:17:26;9.15;;;3.63;;
35632;SDS011;21754;48.216;-1.628;2023-09-08T12:19:53;9.90;;;4.13;;
35632;SDS011;21754;48.216;-1.628;2023-09-08T12:22:19;8.60;;;4.35;;
35632;SDS011;21754;48.216;-1.628;2023-09-08T12:27:16;17.17;;;5.13;;
35632;SDS011;21754;48.216;-1.628;2023-09-08T12:30:03;8.00;;;3.60;;
35632;SDS011;21754;48.216;-1.628;2023-09-08T12:32:30;12.65;;;3.33;;
35632;SDS011;21754;48.216;-1.628;2023-09-08T12:34:57;10.02;;;4.05;;
35632;SDS011;21754;48.216;-1.628;2023-09-08T12:37:24;4.93;;;3.38;;
35632;SDS011;21754;48.216;-1.628;2023-09-08T12:39:52;7.25;;;3.45;;
35632;SDS011;21754;48.216;-1.628;2023-09-08T12:42:18;7.13;;;3.80;;
35632;SDS011;21754;48.216;-1.628;2023-09-08T12:44:45;8.98;;;3.72;;
35632;SDS011;21754;48.216;-1.628;2023-09-08T12:47:11;10.63;;;3.17;;
35632;SDS011;21754;48.216;-1.628;2023-09-08T12:49:37;26.42;;;3.80;;
35632;SDS011;21754;48.216;-1.628;2023-09-08T12:52:04;6.88;;;3.85;;
35632;SDS011;21754;48.216;-1.628;2023-09-08T12:54:30;5.20;;;3.97;;
35632;SDS011;21754;48.216;-1.628;2023-09-08T12:56:56;6.15;;;3.10;;
35632;SDS011;21754;48.216;-1.628;2023-09-08T12:59:22;9.52;;;3.40;;
35632;SDS011;21754;48.216;-1.628;2023-09-08T13:01:48;10.68;;;3.30;;
35632;SDS011;21754;48.216;-1.628;2023-09-08T13:04:14;11.13;;;4.03;;
35632;SDS011;21754;48.216;-1.628;2023-09-08T13:06:40;19.30;;;4.22;;
35632;SDS011;21754;48.216;-1.628;2023-09-08T13:09:06;4.32;;;3.88;;
35632;SDS011;21754;48.216;-1.628;2023-09-08T13:13:59;11.77;;;4.63;;
35632;SDS011;21754;48.216;-1.628;2023-09-08T13:16:25;11.00;;;3.90;;
35632;SDS011;21754;48.216;-1.628;2023-09-08T13:18:51;11.07;;;3.85;;
35632;SDS011;21754;48.216;-1.628;2023-09-08T13:21:17;7.47;;;3.05;;
35632;SDS011;21754;48.216;-1.628;2023-09-08T13:23:43;9.88;;;3.67;;
35632;SDS011;21754;48.216;-1.628;2023-09-08T13:26:09;10.73;;;3.97;;
35632;SDS011;21754;48.216;-1.628;2023-09-08T13:28:35;12.00;;;3.78;;
35632;SDS011;21754;48.216;-1.628;2023-09-08T13:31:01;7.43;;;3.92;;
35632;SDS011;21754;48.216;-1.628;2023-09-08T13:33:27;7.78;;;3.30;;
35632;SDS011;21754;48.216;-1.628;2023-09-08T13:35:53;5.90;;;2.90;;
35632;SDS011;21754;48.216;-1.628;2023-09-08T13:38:19;8.60;;;3.03;;
35632;SDS011;21754;48.216;-1.628;2023-09-08T13:40:46;11.50;;;4.75;;
35632;SDS011;21754;48.216;-1.628;2023-09-08T13:43:11;11.40;;;3.75;;
35632;SDS011;21754;48.216;-1.628;2023-09-08T13:45:39;13.48;;;3.88;;
35632;SDS011;21754;48.216;-1.628;2023-09-08T13:48:07;14.38;;;3.83;;
35632;SDS011;21754;48.216;-1.628;2023-09-08T13:50:33;12.65;;;2.83;;
35632;SDS011;21754;48.216;-1.628;2023-09-08T13:52:59;10.65;;;3.35;;
35632;SDS011;21754;48.216;-1.628;2023-09-08T13:55:25;4.65;;;3.10;;
35632;SDS011;21754;48.216;-1.628;2023-09-08T13:57:51;7.30;;;3.83;;
35632;SDS011;21754;48.216;-1.628;2023-09-08T14:00:17;13.07;;;2.75;;
35632;SDS011;21754;48.216;-1.628;2023-09-08T14:02:44;4.30;;;3.55;;
35632;SDS011;21754;48.216;-1.628;2023-09-08T14:05:10;5.38;;;2.88;;
35632;SDS011;21754;48.216;-1.628;2023-09-08T14:07:36;13.65;;;3.67;;
35632;SDS011;21754;48.216;-1.628;2023-09-08T14:10:02;10.50;;;3.60;;
35632;SDS011;21754;48.216;-1.628;2023-09-08T14:12:32;5.85;;;2.92;;
35632;SDS011;21754;48.216;-1.628;2023-09-08T14:14:58;7.57;;;3.30;;
35632;SDS011;21754;48.216;-1.628;2023-09-08T14:17:24;5.72;;;3.35;;
35632;SDS011;21754;48.216;-1.628;2023-09-08T14:19:50;5.50;;;3.80;;
35632;SDS011;21754;48.216;-1.628;2023-09-08T14:22:16;11.00;;;4.00;;
35632;SDS011;21754;48.216;-1.628;2023-09-08T14:24:42;9.55;;;3.28;;
35632;SDS011;21754;48.216;-1.628;2023-09-08T14:27:08;4.75;;;3.03;;
35632;SDS011;21754;48.216;-1.628;2023-09-08T14:29:34;11.10;;;4.28;;
35632;SDS011;21754;48.216;-1.628;2023-09-08T14:32:00;10.32;;;4.45;;
35632;SDS011;21754;48.216;-1.628;2023-09-08T14:34:27;10.73;;;3.55;;
35632;SDS011;21754;48.216;-1.628;2023-09-08T14:36:53;5.88;;;2.83;;
35632;SDS011;21754;48.216;-1.628;2023-09-08T14:39:19;5.22;;;3.40;;
35632;SDS011;21754;48.216;-1.628;2023-09-08T14:41:45;13.68;;;3.50;;
35632;SDS011;21754;48.216;-1.628;2023-09-08T14:44:11;17.60;;;4.35;;
35632;SDS011;21754;48.216;-1.628;2023-09-08T14:46:37;16.52;;;3.58;;
35632;SDS011;21754;48.216;-1.628;2023-09-08T14:49:03;5.60;;;3.42;;
35632;SDS011;21754;48.216;-1.628;2023-09-08T14:51:29;10.32;;;3.90;;
35632;SDS011;21754;48.216;-1.628;2023-09-08T14:53:55;4.68;;;2.75;;
35632;SDS011;21754;48.216;-1.628;2023-09-08T14:56:21;13.13;;;4.13;;
35632;SDS011;21754;48.216;-1.628;2023-09-08T14:58:48;5.55;;;3.63;;
35632;SDS011;21754;48.216;-1.628;2023-09-08T15:01:14;10.52;;;3.10;;
35632;SDS011;21754;48.216;-1.628;2023-09-08T15:03:40;6.20;;;4.03;;